createdAt,value
2018-09-04T00:00:16.187Z,0.00
2018-09-04T00:01:16.249Z,0.00
2018-09-04T00:02:16.312Z,0.00
2018-09-04T00:03:16.374Z,0.00
2018-09-04T00:04:16.443Z,0.00
2018-09-04T00:05:16.499Z,0.00
2018-09-04T00:07:17.030Z,0.00
2018-09-04T00:08:16.688Z,0.00
2018-09-04T00:09:16.748Z,0.00
2018-09-04T00:10:16.814Z,0.00
2018-09-04T00:11:16.876Z,0.00
2018-09-04T00:12:16.936Z,0.00
2018-09-04T00:13:16.999Z,0.00
2018-09-04T00:14:17.062Z,0.00
2018-09-04T00:15:17.127Z,0.00
2018-09-04T00:16:17.186Z,0.00
2018-09-04T00:17:17.248Z,0.00
2018-09-04T00:18:17.311Z,0.00
2018-09-04T00:19:17.373Z,0.00
2018-09-04T00:20:17.437Z,0.00
2018-09-04T00:21:17.503Z,0.00
2018-09-04T00:22:17.561Z,0.00
2018-09-04T00:23:17.623Z,0.00
2018-09-04T00:24:17.691Z,0.00
2018-09-04T00:25:17.749Z,0.00
2018-09-04T00:27:17.873Z,0.00
2018-09-04T00:28:17.935Z,0.00
2018-09-04T00:29:18.000Z,0.00
2018-09-04T00:30:18.060Z,0.00
2018-09-04T00:31:18.123Z,0.00
2018-09-04T00:32:18.186Z,0.00
2018-09-04T00:33:18.247Z,0.00
2018-09-04T00:34:18.314Z,0.00
2018-09-04T00:35:18.372Z,0.00
2018-09-04T00:36:18.435Z,0.00
2018-09-04T00:37:18.497Z,0.00
2018-09-04T00:38:18.560Z,0.00
2018-09-04T00:39:18.623Z,0.00
2018-09-04T00:40:18.685Z,0.00
2018-09-04T00:41:18.748Z,0.00
2018-09-04T00:42:18.812Z,0.00
2018-09-04T00:43:18.872Z,0.00
2018-09-04T00:44:18.937Z,0.00
2018-09-04T00:45:18.999Z,0.00
2018-09-04T00:46:19.060Z,0.00
2018-09-04T00:47:19.123Z,0.00
2018-09-04T00:48:19.185Z,0.00
2018-09-04T00:49:19.249Z,0.00
2018-09-04T00:50:19.311Z,0.00
2018-09-04T00:51:19.373Z,0.00
2018-09-04T00:52:19.436Z,0.00
2018-09-04T00:53:19.501Z,0.00
2018-09-04T00:54:19.562Z,0.00
2018-09-04T00:55:19.624Z,0.00
2018-09-04T00:56:19.687Z,0.00
2018-09-04T00:57:19.749Z,0.00
2018-09-04T00:58:19.814Z,0.00
2018-09-04T00:59:19.875Z,0.00
2018-09-04T01:00:19.936Z,0.00
2018-09-04T01:01:20.000Z,0.00
2018-09-04T01:02:20.064Z,0.00
2018-09-04T01:03:20.126Z,0.00
2018-09-04T01:04:20.189Z,0.00
2018-09-04T01:05:20.252Z,0.00
2018-09-04T01:06:20.313Z,0.00
2018-09-04T01:07:20.578Z,0.00
2018-09-04T01:08:20.440Z,0.00
2018-09-04T01:09:20.502Z,0.00
2018-09-04T01:10:20.564Z,0.00
2018-09-04T01:11:20.628Z,0.00
2018-09-04T01:12:20.690Z,0.00
2018-09-04T01:13:20.752Z,0.00
2018-09-04T01:14:20.819Z,0.00
2018-09-04T01:15:20.878Z,0.00
2018-09-04T01:16:20.941Z,0.00
2018-09-04T01:17:21.205Z,0.00
2018-09-04T01:18:21.066Z,0.00
2018-09-04T01:19:21.134Z,0.00
2018-09-04T01:20:21.191Z,0.00
2018-09-04T01:21:21.252Z,0.00
2018-09-04T01:22:21.315Z,0.00
2018-09-04T01:23:21.380Z,0.00
2018-09-04T01:24:21.440Z,0.00
2018-09-04T01:25:21.505Z,0.00
2018-09-04T01:27:21.627Z,0.00
2018-09-04T01:28:21.690Z,0.00
2018-09-04T01:29:21.755Z,0.00
2018-09-04T01:30:21.815Z,0.00
2018-09-04T01:31:21.877Z,0.00
2018-09-04T01:32:21.939Z,0.00
2018-09-04T01:33:22.002Z,0.00
2018-09-04T01:34:22.068Z,0.00
2018-09-04T01:35:22.126Z,0.00
2018-09-04T01:36:22.189Z,0.00
2018-09-04T01:37:22.252Z,0.00
2018-09-04T01:38:22.312Z,0.00
2018-09-04T01:40:23.855Z,0.00
2018-09-04T01:41:22.499Z,0.00
2018-09-04T01:42:22.562Z,0.00
2018-09-04T01:43:22.623Z,0.00
2018-09-04T01:44:22.686Z,0.00
2018-09-04T01:45:22.748Z,0.00
2018-09-04T01:46:22.810Z,0.00
2018-09-04T01:47:22.872Z,0.00
2018-09-04T01:48:22.934Z,0.00
2018-09-04T01:49:22.996Z,0.00
2018-09-04T01:50:23.058Z,0.00
2018-09-04T01:51:23.122Z,0.00
2018-09-04T01:52:23.185Z,0.00
2018-09-04T01:53:23.245Z,0.00
2018-09-04T01:54:23.307Z,0.00
2018-09-04T01:55:23.369Z,0.00
2018-09-04T01:56:23.431Z,0.00
2018-09-04T01:57:23.492Z,0.00
2018-09-04T01:58:23.554Z,0.00
2018-09-04T01:59:23.616Z,0.00
2018-09-04T02:00:23.678Z,0.00
2018-09-04T02:01:23.740Z,0.00
2018-09-04T02:02:23.803Z,0.00
2018-09-04T02:03:23.865Z,0.00
2018-09-04T02:04:23.926Z,0.00
2018-09-04T02:05:23.988Z,0.00
2018-09-04T02:06:24.050Z,0.00
2018-09-04T02:07:24.116Z,0.00
2018-09-04T02:08:24.174Z,0.00
2018-09-04T02:09:24.236Z,0.00
2018-09-04T02:10:24.299Z,0.00
2018-09-04T02:11:24.360Z,0.00
2018-09-04T02:12:24.422Z,0.00
2018-09-04T02:13:24.483Z,0.00
2018-09-04T02:14:24.544Z,0.00
2018-09-04T02:15:24.609Z,0.00
2018-09-04T02:16:24.672Z,0.00
2018-09-04T02:17:24.731Z,0.00
2018-09-04T02:18:24.798Z,0.00
2018-09-04T02:19:24.858Z,0.00
2018-09-04T02:20:24.936Z,0.00
2018-09-04T02:21:24.981Z,0.00
2018-09-04T02:22:25.046Z,0.00
2018-09-04T02:23:25.105Z,0.00
2018-09-04T02:24:25.167Z,0.00
2018-09-04T02:25:25.227Z,0.00
2018-09-04T02:26:25.289Z,0.00
2018-09-04T02:27:25.352Z,0.00
2018-09-04T02:28:25.414Z,0.00
2018-09-04T02:29:25.476Z,0.00
2018-09-04T02:30:25.539Z,0.00
2018-09-04T02:31:25.603Z,0.00
2018-09-04T02:32:25.661Z,0.00
2018-09-04T02:33:25.722Z,0.00
2018-09-04T02:34:25.785Z,0.00
2018-09-04T02:35:25.847Z,0.00
2018-09-04T02:36:25.909Z,0.00
2018-09-04T02:37:25.970Z,0.00
2018-09-04T02:38:26.052Z,0.00
2018-09-04T02:39:26.102Z,0.00
2018-09-04T02:40:26.156Z,0.00
2018-09-04T02:41:26.218Z,0.00
2018-09-04T02:42:26.280Z,0.00
2018-09-04T02:43:26.342Z,0.00
2018-09-04T02:44:26.404Z,0.00
2018-09-04T02:45:26.465Z,0.00
2018-09-04T02:46:26.528Z,0.00
2018-09-04T02:47:26.589Z,0.00
2018-09-04T02:48:26.652Z,0.00
2018-09-04T02:49:26.713Z,0.00
2018-09-04T02:50:26.780Z,0.00
2018-09-04T02:51:26.838Z,0.00
2018-09-04T02:52:26.901Z,0.00
2018-09-04T02:53:26.962Z,0.00
2018-09-04T02:54:27.025Z,0.00
2018-09-04T02:55:27.085Z,0.00
2018-09-04T02:56:27.146Z,0.00
2018-09-04T02:57:27.209Z,0.00
2018-09-04T02:58:27.270Z,0.00
2018-09-04T02:59:27.333Z,0.00
2018-09-04T03:00:27.395Z,0.00
2018-09-04T03:01:27.456Z,0.00
2018-09-04T03:02:27.518Z,0.00
2018-09-04T03:03:27.580Z,0.00
2018-09-04T03:04:27.647Z,0.00
2018-09-04T03:05:27.704Z,0.00
2018-09-04T03:06:27.765Z,0.00
2018-09-04T03:07:27.827Z,0.00
2018-09-04T03:08:27.890Z,0.00
2018-09-04T03:09:27.952Z,0.00
2018-09-04T03:10:28.013Z,0.00
2018-09-04T03:11:28.074Z,0.00
2018-09-04T03:12:28.138Z,0.00
2018-09-04T03:13:28.253Z,0.00
2018-09-04T03:14:28.261Z,0.00
2018-09-04T03:15:28.325Z,0.00
2018-09-04T03:16:28.386Z,0.00
2018-09-04T03:17:28.447Z,0.00
2018-09-04T03:18:28.508Z,0.00
2018-09-04T03:19:28.628Z,0.00
2018-09-04T03:20:28.637Z,0.00
2018-09-04T03:21:28.697Z,0.00
2018-09-04T03:22:28.764Z,0.00
2018-09-04T03:23:28.820Z,0.00
2018-09-04T03:24:28.882Z,0.00
2018-09-04T03:25:28.943Z,0.00
2018-09-04T03:26:29.005Z,0.00
2018-09-04T03:27:29.067Z,0.00
2018-09-04T03:28:29.130Z,0.00
2018-09-04T03:29:29.192Z,0.00
2018-09-04T03:30:29.255Z,0.00
2018-09-04T03:31:29.316Z,0.00
2018-09-04T03:32:29.379Z,0.00
2018-09-04T03:33:29.442Z,0.00
2018-09-04T03:34:29.502Z,0.00
2018-09-04T03:35:29.563Z,0.00
2018-09-04T03:36:29.625Z,0.00
2018-09-04T03:37:29.690Z,0.00
2018-09-04T03:38:29.749Z,0.00
2018-09-04T03:39:29.968Z,0.00
2018-09-04T03:40:29.875Z,0.00
2018-09-04T03:41:29.936Z,0.00
2018-09-04T03:42:30.002Z,0.00
2018-09-04T03:43:30.062Z,0.00
2018-09-04T03:44:30.181Z,0.00
2018-09-04T03:45:30.183Z,0.00
2018-09-04T03:46:30.246Z,0.00
2018-09-04T03:47:30.308Z,0.00
2018-09-04T03:48:30.370Z,0.00
2018-09-04T03:49:30.432Z,0.00
2018-09-04T03:50:30.493Z,0.00
2018-09-04T03:51:30.556Z,0.00
2018-09-04T03:52:30.618Z,0.00
2018-09-04T03:53:30.705Z,0.00
2018-09-04T03:54:30.744Z,0.00
2018-09-04T03:55:30.805Z,0.00
2018-09-04T03:56:30.866Z,0.00
2018-09-04T03:57:30.928Z,0.00
2018-09-04T03:58:30.991Z,0.00
2018-09-04T03:59:31.052Z,0.00
2018-09-04T04:00:31.116Z,4.00
2018-09-04T04:01:31.264Z,8.00
2018-09-04T04:02:31.240Z,4.00
2018-09-04T04:03:31.301Z,4.00
2018-09-04T04:04:31.362Z,4.00
2018-09-04T04:05:31.424Z,4.00
2018-09-04T04:06:31.491Z,4.00
2018-09-04T04:07:31.549Z,4.00
2018-09-04T04:08:31.611Z,4.00
2018-09-04T04:09:31.673Z,4.00
2018-09-04T04:10:31.734Z,4.00
2018-09-04T04:11:31.797Z,4.00
2018-09-04T04:12:31.859Z,4.00
2018-09-04T04:13:31.921Z,4.00
2018-09-04T04:14:31.982Z,4.00
2018-09-04T04:15:32.046Z,4.00
2018-09-04T04:16:32.107Z,4.00
2018-09-04T04:17:32.168Z,4.00
2018-09-04T04:18:32.231Z,8.00
2018-09-04T04:19:32.293Z,8.00
2018-09-04T04:20:32.356Z,8.00
2018-09-04T04:21:32.419Z,8.00
2018-09-04T04:22:32.479Z,8.00
2018-09-04T04:23:32.557Z,8.00
2018-09-04T04:24:32.614Z,8.00
2018-09-04T04:25:32.667Z,8.00
2018-09-04T04:26:32.737Z,8.00
2018-09-04T04:27:32.791Z,12.00
2018-09-04T04:28:32.853Z,8.00
2018-09-04T04:29:32.915Z,12.00
2018-09-04T04:30:33.865Z,12.00
2018-09-04T04:31:33.038Z,12.00
2018-09-04T04:32:33.101Z,16.00
2018-09-04T04:33:33.162Z,16.00
2018-09-04T04:34:33.224Z,16.00
2018-09-04T04:35:33.286Z,20.00
2018-09-04T04:36:33.348Z,24.00
2018-09-04T04:37:33.412Z,24.00
2018-09-04T04:38:33.473Z,28.00
2018-09-04T04:39:33.538Z,32.00
2018-09-04T04:40:33.597Z,40.00
2018-09-04T04:41:33.658Z,44.00
2018-09-04T04:42:33.720Z,44.00
2018-09-04T04:43:33.783Z,48.00
2018-09-04T04:44:33.845Z,56.00
2018-09-04T04:45:33.906Z,64.00
2018-09-04T04:46:33.967Z,68.00
2018-09-04T04:47:34.031Z,76.00
2018-09-04T04:48:34.093Z,88.00
2018-09-04T04:49:34.154Z,100.00
2018-09-04T04:50:34.215Z,108.00
2018-09-04T04:51:34.278Z,120.00
2018-09-04T04:52:34.341Z,136.00
2018-09-04T04:53:34.717Z,152.00
2018-09-04T04:54:34.464Z,168.00
2018-09-04T04:55:34.527Z,192.00
2018-09-04T04:56:34.589Z,220.00
2018-09-04T04:57:34.669Z,248.00
2018-09-04T04:58:34.718Z,280.00
2018-09-04T04:59:34.778Z,308.00
2018-09-04T05:00:34.837Z,328.00
2018-09-04T05:01:34.899Z,344.00
2018-09-04T05:02:35.523Z,344.00
2018-09-04T05:03:35.023Z,356.00
2018-09-04T05:04:35.086Z,388.00
2018-09-04T05:05:35.149Z,420.00
2018-09-04T05:06:35.210Z,452.00
2018-09-04T05:07:35.669Z,484.00
2018-09-04T05:08:35.335Z,516.00
2018-09-04T05:09:35.397Z,552.00
2018-09-04T05:10:35.458Z,576.00
2018-09-04T05:11:35.590Z,612.00
2018-09-04T05:12:35.584Z,660.00
2018-09-04T05:13:35.649Z,700.00
2018-09-04T05:14:35.710Z,724.00
2018-09-04T05:15:35.771Z,756.00
2018-09-04T05:16:35.834Z,780.00
2018-09-04T05:17:35.894Z,796.00
2018-09-04T05:18:35.961Z,804.00
2018-09-04T05:19:36.020Z,844.00
2018-09-04T05:20:36.082Z,892.00
2018-09-04T05:21:36.144Z,932.00
2018-09-04T05:22:36.211Z,968.00
2018-09-04T05:23:36.267Z,1020.00
2018-09-04T05:24:36.332Z,1076.00
2018-09-04T05:25:36.394Z,1120.00
2018-09-04T05:26:36.457Z,1132.00
2018-09-04T05:27:36.520Z,1124.00
2018-09-04T05:28:36.580Z,1120.00
2018-09-04T05:29:36.642Z,1140.00
2018-09-04T05:30:36.793Z,1164.00
2018-09-04T05:31:36.769Z,1184.00
2018-09-04T05:32:36.834Z,1212.00
2018-09-04T05:33:36.891Z,1216.00
2018-09-04T05:34:36.954Z,1196.00
2018-09-04T05:35:37.016Z,1172.00
2018-09-04T05:36:37.091Z,1160.00
2018-09-04T05:37:37.141Z,1192.00
2018-09-04T05:38:37.206Z,1260.00
2018-09-04T05:39:37.265Z,1356.00
2018-09-04T05:40:37.638Z,1460.00
2018-09-04T05:41:37.390Z,1576.00
2018-09-04T05:42:37.923Z,1708.00
2018-09-04T05:43:37.518Z,1844.00
2018-09-04T05:44:37.577Z,1976.00
2018-09-04T05:45:37.639Z,2120.00
2018-09-04T05:46:37.702Z,2288.00
2018-09-04T05:47:37.765Z,2456.00
2018-09-04T05:48:37.830Z,2568.00
2018-09-04T05:49:37.889Z,2588.00
2018-09-04T05:50:37.952Z,2580.00
2018-09-04T05:51:38.016Z,2596.00
2018-09-04T05:52:38.078Z,2632.00
2018-09-04T05:53:38.139Z,2676.00
2018-09-04T05:54:38.202Z,2728.00
2018-09-04T05:55:38.265Z,2816.00
2018-09-04T05:56:38.363Z,2928.00
2018-09-04T05:57:38.418Z,3028.00
2018-09-04T05:58:38.452Z,3100.00
2018-09-04T05:59:39.206Z,3132.00
2018-09-04T06:00:38.581Z,3176.00
2018-09-04T06:01:38.639Z,3276.00
2018-09-04T06:02:38.700Z,3460.00
2018-09-04T06:03:38.766Z,3656.00
2018-09-04T06:04:38.828Z,3808.00
2018-09-04T06:05:38.889Z,3908.00
2018-09-04T06:06:38.954Z,3988.00
2018-09-04T06:07:39.016Z,4084.00
2018-09-04T06:08:39.078Z,4240.00
2018-09-04T06:09:39.139Z,4432.00
2018-09-04T06:10:39.206Z,4612.00
2018-09-04T06:11:39.267Z,4816.00
2018-09-04T06:12:39.329Z,5000.00
2018-09-04T06:13:39.428Z,5152.00
2018-09-04T06:14:39.454Z,5240.00
2018-09-04T06:15:39.517Z,5344.00
2018-09-04T06:16:39.580Z,5476.00
2018-09-04T06:17:39.643Z,5548.00
2018-09-04T06:18:39.705Z,5496.00
2018-09-04T06:19:39.768Z,5364.00
2018-09-04T06:20:39.833Z,5128.00
2018-09-04T06:21:39.893Z,4888.00
2018-09-04T06:22:39.957Z,4680.00
2018-09-04T06:23:40.021Z,4544.00
2018-09-04T06:24:40.084Z,4512.00
2018-09-04T06:25:40.147Z,4456.00
2018-09-04T06:26:40.210Z,4340.00
2018-09-04T06:27:40.272Z,4216.00
2018-09-04T06:28:40.337Z,4160.00
2018-09-04T06:29:40.471Z,4156.00
2018-09-04T06:30:40.462Z,4256.00
2018-09-04T06:31:40.527Z,4412.00
2018-09-04T06:32:40.589Z,4724.00
2018-09-04T06:33:40.653Z,5036.00
2018-09-04T06:34:40.716Z,5200.00
2018-09-04T06:35:40.780Z,5200.00
2018-09-04T06:36:40.899Z,5228.00
2018-09-04T06:37:40.924Z,5192.00
2018-09-04T06:38:40.966Z,5144.00
2018-09-04T06:39:41.031Z,4992.00
2018-09-04T06:40:41.094Z,4780.00
2018-09-04T06:41:41.307Z,4532.00
2018-09-04T06:42:41.226Z,4284.00
2018-09-04T06:43:41.654Z,4184.00
2018-09-04T06:44:41.362Z,4136.00
2018-09-04T06:45:41.410Z,4204.00
2018-09-04T06:46:41.497Z,4356.00
2018-09-04T06:47:41.537Z,4608.00
2018-09-04T06:48:41.601Z,4828.00
2018-09-04T06:49:41.686Z,4824.00
2018-09-04T06:50:41.726Z,4816.00
2018-09-04T06:51:41.794Z,4772.00
2018-09-04T06:52:41.859Z,4964.00
2018-09-04T06:53:41.928Z,5120.00
2018-09-04T06:54:42.038Z,5312.00
2018-09-04T06:55:42.080Z,5380.00
2018-09-04T06:56:42.108Z,5568.00
2018-09-04T06:57:42.207Z,5852.00
2018-09-04T06:58:42.233Z,6128.00
2018-09-04T06:59:42.298Z,6220.00
2018-09-04T07:00:42.368Z,6240.00
2018-09-04T07:01:42.676Z,6000.00
2018-09-04T07:02:42.489Z,5800.00
2018-09-04T07:03:42.552Z,5652.00
2018-09-04T07:04:42.617Z,5740.00
2018-09-04T07:05:42.680Z,5760.00
2018-09-04T07:06:42.746Z,5728.00
2018-09-04T07:07:42.809Z,5768.00
2018-09-04T07:08:42.873Z,5868.00
2018-09-04T07:09:42.935Z,6100.00
2018-09-04T07:10:42.999Z,6340.00
2018-09-04T07:11:43.063Z,6580.00
2018-09-04T07:12:43.127Z,6904.00
2018-09-04T07:13:43.190Z,7068.00
2018-09-04T07:14:43.256Z,7140.00
2018-09-04T07:15:43.319Z,7128.00
2018-09-04T07:16:43.384Z,7320.00
2018-09-04T07:17:43.446Z,7772.00
2018-09-04T07:18:43.511Z,8388.00
2018-09-04T07:19:43.576Z,8624.00
2018-09-04T07:20:44.089Z,8608.00
2018-09-04T07:21:43.707Z,8532.00
2018-09-04T07:22:43.767Z,8380.00
2018-09-04T07:23:43.871Z,8256.00
2018-09-04T07:24:43.895Z,8280.00
2018-09-04T07:25:43.957Z,8368.00
2018-09-04T07:26:44.031Z,8388.00
2018-09-04T07:27:44.088Z,8416.00
2018-09-04T07:28:44.151Z,8300.00
2018-09-04T07:29:44.215Z,8224.00
2018-09-04T07:30:44.279Z,8376.00
2018-09-04T07:31:44.345Z,8664.00
2018-09-04T07:32:44.408Z,9300.00
2018-09-04T07:33:44.471Z,10156.00
2018-09-04T07:34:44.537Z,10864.00
2018-09-04T07:35:44.601Z,11320.00
2018-09-04T07:36:44.665Z,11872.00
2018-09-04T07:37:44.729Z,11448.00
2018-09-04T07:38:44.794Z,10988.00
2018-09-04T07:39:44.862Z,10820.00
2018-09-04T07:40:44.923Z,11076.00
2018-09-04T07:41:45.038Z,11476.00
2018-09-04T07:42:45.056Z,11684.00
2018-09-04T07:43:45.117Z,12060.00
2018-09-04T07:44:45.233Z,12520.00
2018-09-04T07:45:45.245Z,12656.00
2018-09-04T07:46:45.322Z,12744.00
2018-09-04T07:47:45.437Z,12688.00
2018-09-04T07:48:45.497Z,12700.00
2018-09-04T07:49:45.544Z,12776.00
2018-09-04T07:50:45.622Z,12892.00
2018-09-04T07:51:45.737Z,12876.00
2018-09-04T07:52:45.705Z,12796.00
2018-09-04T07:53:45.909Z,12500.00
2018-09-04T07:54:45.884Z,12164.00
2018-09-04T07:55:45.942Z,11872.00
2018-09-04T07:56:45.988Z,11516.00
2018-09-04T07:57:46.069Z,11872.00
2018-09-04T07:58:46.448Z,12744.00
2018-09-04T07:59:46.156Z,12656.00
2018-09-04T08:00:46.580Z,11560.00
2018-09-04T08:01:46.363Z,11196.00
2018-09-04T08:02:46.791Z,11180.00
2018-09-04T08:03:46.568Z,11000.00
2018-09-04T08:04:46.862Z,10380.00
2018-09-04T08:05:46.554Z,9740.00
2018-09-04T08:06:46.613Z,9476.00
2018-09-04T08:07:46.679Z,9300.00
2018-09-04T08:08:46.745Z,9276.00
2018-09-04T08:09:46.809Z,9420.00
2018-09-04T08:10:46.877Z,9564.00
2018-09-04T08:11:46.940Z,9476.00
2018-09-04T08:12:47.006Z,9620.00
2018-09-04T08:13:47.070Z,10040.00
2018-09-04T08:14:47.135Z,10916.00
2018-09-04T08:15:47.202Z,10964.00
2018-09-04T08:16:47.273Z,10776.00
2018-09-04T08:17:47.395Z,11176.00
2018-09-04T08:18:47.398Z,11280.00
2018-09-04T08:19:47.503Z,10564.00
2018-09-04T08:20:47.948Z,10204.00
2018-09-04T08:21:47.597Z,10124.00
2018-09-04T08:22:48.159Z,9852.00
2018-09-04T08:23:47.725Z,9380.00
2018-09-04T08:24:47.790Z,8860.00
2018-09-04T08:25:47.854Z,8540.00
2018-09-04T08:26:47.920Z,8420.00
2018-09-04T08:27:47.986Z,8464.00
2018-09-04T08:28:48.052Z,8348.00
2018-09-04T08:29:48.118Z,8072.00
2018-09-04T08:30:48.182Z,7916.00
2018-09-04T08:31:48.248Z,7788.00
2018-09-04T08:32:48.377Z,7592.00
2018-09-04T08:33:48.378Z,7604.00
2018-09-04T08:34:48.444Z,7744.00
2018-09-04T08:35:48.511Z,7884.00
2018-09-04T08:36:48.575Z,7888.00
2018-09-04T08:37:48.640Z,8000.00
2018-09-04T08:38:48.706Z,7896.00
2018-09-04T08:39:48.811Z,7708.00
2018-09-04T08:40:48.837Z,7636.00
2018-09-04T08:41:48.919Z,7592.00
2018-09-04T08:42:48.968Z,7628.00
2018-09-04T08:43:49.035Z,7628.00
2018-09-04T08:44:49.100Z,7676.00
2018-09-04T08:45:49.165Z,7716.00
2018-09-04T08:46:49.246Z,7632.00
2018-09-04T08:47:49.389Z,7544.00
2018-09-04T08:48:49.361Z,7532.00
2018-09-04T08:49:49.426Z,7572.00
2018-09-04T08:50:49.494Z,7504.00
2018-09-04T08:51:49.558Z,7420.00
2018-09-04T08:52:49.879Z,7360.00
2018-09-04T08:53:49.689Z,7248.00
2018-09-04T08:54:49.756Z,7400.00
2018-09-04T08:55:49.821Z,7604.00
2018-09-04T08:56:49.927Z,7624.00
2018-09-04T08:57:49.952Z,7536.00
2018-09-04T08:58:50.017Z,7560.00
2018-09-04T08:59:50.085Z,7588.00
2018-09-04T09:00:50.151Z,7460.00
2018-09-04T09:01:50.215Z,7300.00
2018-09-04T09:02:50.283Z,7312.00
2018-09-04T09:03:50.361Z,7360.00
2018-09-04T09:04:50.413Z,7300.00
2018-09-04T09:05:50.479Z,7208.00
2018-09-04T09:06:50.547Z,7044.00
2018-09-04T09:07:50.612Z,6984.00
2018-09-04T09:08:50.678Z,7028.00
2018-09-04T09:09:50.757Z,7100.00
2018-09-04T09:10:50.808Z,7148.00
2018-09-04T09:11:50.891Z,7184.00
2018-09-04T09:12:50.945Z,7160.00
2018-09-04T09:13:51.006Z,7164.00
2018-09-04T09:14:51.118Z,7220.00
2018-09-04T09:15:51.138Z,7292.00
2018-09-04T09:16:51.280Z,7344.00
2018-09-04T09:17:51.274Z,7340.00
2018-09-04T09:18:51.338Z,7316.00
2018-09-04T09:19:51.402Z,7340.00
2018-09-04T09:20:51.473Z,7340.00
2018-09-04T09:21:51.534Z,7348.00
2018-09-04T09:22:51.620Z,7396.00
2018-09-04T09:23:51.666Z,7444.00
2018-09-04T09:24:51.743Z,7472.00
2018-09-04T09:25:51.798Z,7508.00
2018-09-04T09:26:51.867Z,7564.00
2018-09-04T09:27:51.930Z,7540.00
2018-09-04T09:28:51.996Z,7548.00
2018-09-04T09:29:52.064Z,7620.00
2018-09-04T09:30:52.128Z,7632.00
2018-09-04T09:31:52.195Z,7652.00
2018-09-04T09:32:52.261Z,7684.00
2018-09-04T09:33:52.326Z,7612.00
2018-09-04T09:34:52.393Z,7560.00
2018-09-04T09:35:52.459Z,7800.00
2018-09-04T09:36:52.648Z,8000.00
2018-09-04T09:37:52.592Z,7800.00
2018-09-04T09:38:52.656Z,7744.00
2018-09-04T09:39:52.722Z,8324.00
2018-09-04T09:40:52.796Z,8144.00
2018-09-04T09:41:52.854Z,8664.00
2018-09-04T09:42:52.921Z,8788.00
2018-09-04T09:43:52.987Z,8892.00
2018-09-04T09:44:53.054Z,9020.00
2018-09-04T09:45:53.119Z,9844.00
2018-09-04T09:46:53.187Z,9908.00
2018-09-04T09:47:53.402Z,9984.00
2018-09-04T09:48:53.319Z,11404.00
2018-09-04T09:49:53.397Z,12796.00
2018-09-04T09:50:53.451Z,13812.00
2018-09-04T09:51:53.518Z,15536.00
2018-09-04T09:52:53.640Z,16632.00
2018-09-04T09:53:53.663Z,17468.00
2018-09-04T09:54:53.717Z,18240.00
2018-09-04T09:55:53.839Z,19520.00
2018-09-04T09:56:53.851Z,20480.00
2018-09-04T09:57:53.928Z,21056.00
2018-09-04T09:58:53.988Z,21376.00
2018-09-04T09:59:54.097Z,21632.00
2018-09-04T10:00:54.210Z,22592.00
2018-09-04T10:01:54.184Z,21952.00
2018-09-04T10:02:54.252Z,21056.00
2018-09-04T10:03:54.371Z,20640.00
2018-09-04T10:04:54.388Z,20320.00
2018-09-04T10:05:54.491Z,18912.00
2018-09-04T10:06:54.523Z,17276.00
2018-09-04T10:07:54.807Z,16096.00
2018-09-04T10:08:54.658Z,14856.00
2018-09-04T10:09:54.803Z,13876.00
2018-09-04T10:10:54.803Z,12980.00
2018-09-04T10:11:54.861Z,13044.00
2018-09-04T10:12:54.929Z,12816.00
2018-09-04T10:13:54.996Z,12188.00
2018-09-04T10:14:55.070Z,12116.00
2018-09-04T10:15:55.133Z,10696.00
2018-09-04T10:16:55.200Z,10088.00
2018-09-04T10:17:55.372Z,9680.00
2018-09-04T10:18:55.335Z,9300.00
2018-09-04T10:19:55.450Z,9424.00
2018-09-04T10:20:55.471Z,9236.00
2018-09-04T10:21:55.540Z,9784.00
2018-09-04T10:22:55.604Z,9080.00
2018-09-04T10:23:55.673Z,9532.00
2018-09-04T10:24:55.743Z,11436.00
2018-09-04T10:25:55.808Z,12712.00
2018-09-04T10:26:55.877Z,12516.00
2018-09-04T10:27:55.941Z,11984.00
2018-09-04T10:28:56.009Z,11892.00
2018-09-04T10:29:56.076Z,11692.00
2018-09-04T10:30:56.145Z,11572.00
2018-09-04T10:31:56.218Z,11512.00
2018-09-04T10:32:56.279Z,12516.00
2018-09-04T10:33:56.345Z,12448.00
2018-09-04T10:34:56.413Z,13772.00
2018-09-04T10:35:56.481Z,12284.00
2018-09-04T10:36:56.550Z,15052.00
2018-09-04T10:37:56.615Z,15640.00
2018-09-04T10:38:56.684Z,19456.00
2018-09-04T10:39:56.751Z,29504.00
2018-09-04T10:40:56.820Z,18592.00
2018-09-04T10:41:56.890Z,54176.00
2018-09-04T10:42:56.955Z,54528.00
2018-09-04T10:43:57.026Z,36704.00
2018-09-04T10:44:57.097Z,55456.00
2018-09-04T10:45:57.161Z,57440.00
2018-09-04T10:46:57.235Z,57408.00
2018-09-04T10:47:57.298Z,56320.00
2018-09-04T10:48:57.368Z,53856.00
2018-09-04T10:49:57.453Z,53728.00
2018-09-04T10:50:57.508Z,55552.00
2018-09-04T10:51:57.577Z,56384.00
2018-09-04T10:52:57.647Z,30080.00
2018-09-04T10:53:57.717Z,30944.00
2018-09-04T10:54:57.789Z,18784.00
2018-09-04T10:55:57.860Z,44416.00
2018-09-04T10:56:57.929Z,58912.00
2018-09-04T10:57:57.999Z,60192.00
2018-09-04T10:58:58.070Z,59168.00
2018-09-04T10:59:58.141Z,57920.00
2018-09-04T11:00:58.228Z,49120.00
2018-09-04T11:01:58.294Z,50816.00
2018-09-04T11:02:58.354Z,60960.00
2018-09-04T11:03:58.424Z,61440.00
2018-09-04T11:04:58.497Z,63296.00
2018-09-04T11:05:58.568Z,24064.00
2018-09-04T11:06:58.640Z,32768.00
2018-09-04T11:07:58.712Z,64288.00
2018-09-04T11:08:58.798Z,60256.00
2018-09-04T11:09:58.966Z,59136.00
2018-09-04T11:10:58.928Z,59200.00
2018-09-04T11:11:59.000Z,45056.00
2018-09-04T11:12:59.073Z,58208.00
2018-09-04T11:13:59.145Z,55904.00
2018-09-04T11:14:59.219Z,23456.00
2018-09-04T11:15:59.930Z,20128.00
2018-09-04T11:16:59.367Z,32544.00
2018-09-04T11:17:59.440Z,20032.00
2018-09-04T11:18:59.511Z,21632.00
2018-09-04T11:19:59.586Z,22528.00
2018-09-04T11:20:59.657Z,33856.00
2018-09-04T11:21:59.736Z,44896.00
2018-09-04T11:23:00.110Z,24288.00
2018-09-04T11:23:59.875Z,24960.00
2018-09-04T11:24:59.948Z,27136.00
2018-09-04T11:26:00.033Z,32256.00
2018-09-04T11:27:00.093Z,28800.00
2018-09-04T11:28:00.170Z,37920.00
2018-09-04T11:29:00.238Z,26016.00
2018-09-04T11:30:00.309Z,23808.00
2018-09-04T11:31:00.382Z,22848.00
2018-09-04T11:32:00.454Z,27648.00
2018-09-04T11:33:00.528Z,23584.00
2018-09-04T11:34:00.597Z,24832.00
2018-09-04T11:35:00.671Z,25600.00
2018-09-04T11:36:00.790Z,25888.00
2018-09-04T11:37:00.815Z,26048.00
2018-09-04T11:38:00.885Z,24704.00
2018-09-04T11:39:00.959Z,23840.00
2018-09-04T11:40:01.030Z,23104.00
2018-09-04T11:41:01.099Z,24160.00
2018-09-04T11:42:01.170Z,25440.00
2018-09-04T11:43:01.242Z,42016.00
2018-09-04T11:44:01.314Z,30560.00
2018-09-04T11:45:01.386Z,28896.00
2018-09-04T11:46:01.458Z,27392.00
2018-09-04T11:47:01.612Z,28256.00
2018-09-04T11:48:01.600Z,30688.00
2018-09-04T11:49:01.669Z,33408.00
2018-09-04T11:50:01.738Z,32480.00
2018-09-04T11:51:01.811Z,39936.00
2018-09-04T11:52:01.881Z,38368.00
2018-09-04T11:53:01.955Z,38016.00
2018-09-04T11:54:02.024Z,46752.00
2018-09-04T11:55:02.094Z,54464.00
2018-09-04T11:56:02.165Z,49184.00
2018-09-04T11:57:02.236Z,39776.00
2018-09-04T11:58:02.308Z,51264.00
2018-09-04T11:59:02.380Z,38240.00
2018-09-04T12:00:02.453Z,48448.00
2018-09-04T12:01:02.525Z,43936.00
2018-09-04T12:02:02.600Z,27360.00
2018-09-04T12:03:02.668Z,25184.00
2018-09-04T12:04:02.741Z,24192.00
2018-09-04T12:05:02.815Z,22496.00
2018-09-04T12:06:02.886Z,19584.00
2018-09-04T12:07:02.959Z,17664.00
2018-09-04T12:08:03.033Z,15980.00
2018-09-04T12:09:03.105Z,15308.00
2018-09-04T12:10:03.177Z,15124.00
2018-09-04T12:11:03.250Z,15264.00
2018-09-04T12:12:03.328Z,15304.00
2018-09-04T12:13:03.425Z,15072.00
2018-09-04T12:14:03.468Z,14896.00
2018-09-04T12:15:03.539Z,14500.00
2018-09-04T12:16:03.610Z,14144.00
2018-09-04T12:17:03.685Z,14844.00
2018-09-04T12:18:03.754Z,15732.00
2018-09-04T12:19:03.839Z,17032.00
2018-09-04T12:20:03.896Z,18624.00
2018-09-04T12:21:04.137Z,21408.00
2018-09-04T12:22:04.038Z,27168.00
2018-09-04T12:23:04.113Z,50048.00
2018-09-04T12:24:04.181Z,78688.00
2018-09-04T12:25:04.251Z,35552.00
2018-09-04T12:26:04.333Z,33184.00
2018-09-04T12:27:04.409Z,79104.00
2018-09-04T12:28:04.463Z,86656.00
2018-09-04T12:29:04.534Z,46560.00
2018-09-04T12:30:04.604Z,37088.00
2018-09-04T12:31:04.676Z,36512.00